Time;durP1;ratioP1;P1;durP2;ratioP2;P2;SDS_P1;SDS_P2;PMS_P1;PMS_P2;Temp;Humidity;BMP_temperature;BMP_pressure;BME280_temperature;BME280_humidity;BME280_pressure;Samples;Min_cycle;Max_cycle;Signal;HPM_P1;HPM_P2
2020/12/19 00:02:07;;;;;;;3.70;3.30;;;22.00;32.70;;;;;;4992464;28;20525;-57
2020/12/19 00:04:34;;;;;;;3.40;3.10;;;22.00;32.60;;;;;;4975220;28;20410;-57
2020/12/19 00:06:59;;;;;;;3.63;3.25;;;22.00;32.60;;;;;;4992573;28;20386;-57
2020/12/19 00:09:25;;;;;;;3.50;3.20;;;22.00;32.70;;;;;;4992147;28;20395;-57
2020/12/19 00:11:51;;;;;;;3.40;3.10;;;22.00;32.60;;;;;;4974269;28;20941;-57
2020/12/19 00:14:18;;;;;;;3.35;3.05;;;22.00;32.60;;;;;;4992587;28;20897;-57
2020/12/19 00:16:44;;;;;;;3.50;3.20;;;21.90;32.60;;;;;;4992443;28;20793;-58
2020/12/19 00:19:10;;;;;;;3.25;2.95;;;22.00;33.30;;;;;;4992850;28;20395;-59
2020/12/19 00:21:36;;;;;;;3.20;2.90;;;21.90;32.60;;;;;;4991805;28;20414;-57
2020/12/19 00:24:04;;;;;;;3.40;3.10;;;21.90;32.60;;;;;;4992477;28;20746;-57
2020/12/19 00:26:33;;;;;;;3.30;3.00;;;21.90;32.50;;;;;;4974853;28;20791;-56
2020/12/19 00:28:59;;;;;;;3.00;2.70;;;21.90;32.60;;;;;;4992296;28;20485;-57
2020/12/19 00:31:25;;;;;;;3.20;2.90;;;21.90;32.50;;;;;;4991925;28;20501;-57
2020/12/19 00:33:51;;;;;;;3.28;2.90;;;21.90;32.70;;;;;;4992164;28;20399;-57
2020/12/19 00:36:16;;;;;;;3.27;2.97;;;21.90;32.50;;;;;;4992209;28;20680;-57
2020/12/19 00:38:42;;;;;;;3.33;3.00;;;21.80;32.40;;;;;;4992201;28;20860;-57
2020/12/19 00:41:08;;;;;;;3.10;2.80;;;21.90;32.40;;;;;;4992108;28;20401;-57
2020/12/19 00:43:35;;;;;;;2.90;2.70;;;21.90;32.40;;;;;;4991486;28;20762;-57
2020/12/19 00:46:00;;;;;;;2.95;2.67;;;21.80;32.30;;;;;;4991893;28;20786;-57
2020/12/19 00:48:26;;;;;;;3.00;2.67;;;21.80;32.30;;;;;;4992166;28;20478;-57
2020/12/19 00:50:52;;;;;;;3.00;2.70;;;21.80;32.30;;;;;;4992027;28;20393;-57
2020/12/19 00:53:17;;;;;;;2.90;2.60;;;21.80;32.30;;;;;;4991743;28;20799;-57
2020/12/19 00:55:43;;;;;;;3.10;2.80;;;21.80;32.30;;;;;;4991508;28;20394;-57
2020/12/19 00:58:09;;;;;;;3.03;2.65;;;21.80;32.40;;;;;;4991780;28;20395;-57
2020/12/19 01:00:35;;;;;;;2.83;2.63;;;21.80;32.40;;;;;;4991834;28;20398;-57
2020/12/19 01:03:00;;;;;;;2.97;2.70;;;21.80;32.50;;;;;;4991617;28;20426;-57
2020/12/19 01:05:26;;;;;;;3.00;2.67;;;21.80;32.60;;;;;;4991539;28;20398;-57
2020/12/19 01:07:53;;;;;;;2.78;2.58;;;21.70;32.50;;;;;;4991161;28;20484;-57
2020/12/19 01:10:18;;;;;;;2.93;2.63;;;21.80;32.60;;;;;;4992192;28;20395;-57
2020/12/19 01:12:44;;;;;;;2.85;2.63;;;21.80;32.50;;;;;;4991868;28;20390;-57
2020/12/19 01:15:09;;;;;;;3.03;2.73;;;21.80;32.40;;;;;;4991970;28;20466;-57
2020/12/19 01:17:38;;;;;;;2.83;2.55;;;21.80;32.50;;;;;;4991434;28;20395;-57
2020/12/19 01:20:04;;;;;;;3.25;2.70;;;21.70;32.40;;;;;;4991976;28;20387;-57
2020/12/19 01:22:30;;;;;;;2.60;2.40;;;21.70;32.50;;;;;;4992450;28;20430;-57
2020/12/19 01:24:55;;;;;;;3.00;2.70;;;21.70;32.50;;;;;;4995600;28;20485;-57
2020/12/19 01:27:21;;;;;;;2.70;2.50;;;21.70;32.50;;;;;;4995405;28;20814;-57
2020/12/19 01:29:46;;;;;;;2.93;2.53;;;21.70;32.50;;;;;;4977946;28;20464;-58
2020/12/19 01:32:12;;;;;;;2.80;2.60;;;21.70;32.40;;;;;;4995546;28;20482;-58
2020/12/19 01:34:37;;;;;;;2.67;2.47;;;21.70;32.40;;;;;;4995508;28;20394;-57
2020/12/19 01:37:03;;;;;;;2.43;2.23;;;21.70;32.40;;;;;;4978049;28;20955;-57
2020/12/19 01:39:29;;;;;;;3.00;2.70;;;21.70;32.40;;;;;;4994743;28;20440;-57
2020/12/19 01:41:54;;;;;;;2.73;2.43;;;21.60;32.40;;;;;;4995206;28;20422;-58
2020/12/19 01:44:20;;;;;;;2.78;2.50;;;21.60;32.40;;;;;;4995491;28;20808;-69
2020/12/19 01:46:52;;;;;;;2.80;2.60;;;21.60;32.40;;;;;;4977897;28;20395;-69
2020/12/19 01:49:19;;;;;;;2.58;2.38;;;21.70;32.40;;;;;;4995107;28;20394;-57
2020/12/19 01:51:47;;;;;;;2.60;2.40;;;21.60;32.30;;;;;;4994936;28;20778;-57
2020/12/19 01:54:12;;;;;;;2.47;2.28;;;21.60;32.40;;;;;;4995266;28;20391;-57
2020/12/19 01:56:44;;;;;;;2.67;2.47;;;21.60;32.40;;;;;;4995028;28;20394;-57
2020/12/19 01:59:10;;;;;;;2.63;2.42;;;21.60;32.40;;;;;;4995088;28;20448;-57
2020/12/19 02:01:50;;;;;;;2.80;2.50;;;21.60;32.40;;;;;;4994128;28;20751;-58
2020/12/19 02:04:18;;;;;;;2.65;2.45;;;21.60;32.50;;;;;;4995056;28;20414;-57
2020/12/19 02:06:47;;;;;;;2.60;2.40;;;21.60;32.40;;;;;;4994924;28;20402;-59
2020/12/19 02:09:14;;;;;;;2.60;2.40;;;21.60;32.50;;;;;;4994847;28;20386;-57
2020/12/19 02:11:42;;;;;;;2.97;2.53;;;21.50;32.40;;;;;;4994472;28;20746;-62
2020/12/19 02:14:08;;;;;;;2.47;2.28;;;21.60;32.50;;;;;;4994788;28;20395;-57
2020/12/19 02:16:35;;;;;;;2.60;2.40;;;21.50;32.40;;;;;;4994835;28;20434;-57
2020/12/19 02:19:01;;;;;;;2.30;2.10;;;21.60;32.40;;;;;;4995103;28;20391;-57
2020/12/19 02:21:26;;;;;;;2.53;2.33;;;21.60;32.40;;;;;;4994385;28;20414;-57
2020/12/19 02:23:52;;;;;;;2.40;2.20;;;21.50;32.40;;;;;;4994423;28;20402;-57
2020/12/19 02:26:18;;;;;;;2.50;2.30;;;21.50;33.00;;;;;;4994586;28;20874;-57
2020/12/19 02:28:43;;;;;;;2.50;2.30;;;21.50;32.40;;;;;;4994505;28;20394;-57
2020/12/19 02:31:09;;;;;;;2.40;2.20;;;21.50;32.30;;;;;;4994533;28;20395;-57
2020/12/19 02:33:35;;;;;;;2.38;2.17;;;21.50;32.40;;;;;;4993708;28;20590;-57
2020/12/19 02:36:00;;;;;;;2.70;2.50;;;21.50;32.30;;;;;;4993729;28;20489;-57
2020/12/19 02:38:26;;;;;;;2.60;2.40;;;21.50;32.40;;;;;;4977004;28;20433;-57
2020/12/19 02:40:52;;;;;;;2.50;2.30;;;21.50;32.40;;;;;;4994027;28;20394;-60
2020/12/19 02:43:17;;;;;;;2.50;2.30;;;21.40;32.30;;;;;;4994227;28;20818;-57
2020/12/19 02:45:43;;;;;;;2.50;2.30;;;21.50;32.30;;;;;;4993708;28;20387;-57
2020/12/19 02:48:08;;;;;;;2.40;2.20;;;21.50;32.30;;;;;;4994291;28;20401;-56
2020/12/19 02:50:34;;;;;;;2.63;2.43;;;21.50;32.30;;;;;;4994084;28;20386;-57
2020/12/19 02:53:00;;;;;;;2.50;2.30;;;21.50;32.30;;;;;;4994046;28;20398;-57
2020/12/19 02:55:25;;;;;;;2.40;2.20;;;21.40;32.20;;;;;;4993841;28;20418;-57
2020/12/19 02:57:51;;;;;;;2.30;2.10;;;21.40;32.20;;;;;;4993708;28;20875;-56
2020/12/19 03:00:16;;;;;;;2.20;2.00;;;21.40;32.20;;;;;;4994035;28;20436;-57
2020/12/19 03:02:42;;;;;;;2.28;2.08;;;21.40;32.20;;;;;;4993427;28;20441;-56
2020/12/19 03:05:08;;;;;;;2.30;2.10;;;21.40;32.30;;;;;;4994242;28;20418;-57
2020/12/19 03:07:35;;;;;;;2.30;2.10;;;21.40;32.20;;;;;;4993426;28;20391;-69
2020/12/19 03:10:01;;;;;;;2.33;2.13;;;21.40;32.30;;;;;;4993714;28;20437;-57
2020/12/19 03:12:26;;;;;;;2.20;2.00;;;21.40;32.20;;;;;;4993802;28;20402;-67
2020/12/19 03:14:52;;;;;;;2.47;2.28;;;21.40;32.20;;;;;;4993622;28;20422;-57
2020/12/19 03:17:17;;;;;;;2.20;2.00;;;21.40;32.20;;;;;;4993638;28;20407;-57
2020/12/19 03:19:43;;;;;;;2.25;2.05;;;21.40;32.20;;;;;;4992948;28;20847;-57
2020/12/19 03:22:09;;;;;;;2.40;2.20;;;21.40;32.20;;;;;;4993428;28;20423;-57
2020/12/19 03:24:34;;;;;;;2.30;2.10;;;21.40;32.20;;;;;;4993372;28;20865;-57
2020/12/19 03:27:00;;;;;;;2.30;2.10;;;21.40;32.20;;;;;;4993448;28;20452;-57
2020/12/19 03:29:25;;;;;;;2.30;2.10;;;21.30;32.20;;;;;;4992815;28;20395;-57
2020/12/19 03:31:51;;;;;;;2.33;2.13;;;21.30;32.20;;;;;;4993054;28;20457;-57
2020/12/19 03:34:16;;;;;;;2.13;1.93;;;21.30;32.10;;;;;;4975928;28;20441;-57
2020/12/19 03:36:42;;;;;;;2.40;2.20;;;21.30;32.20;;;;;;4993148;28;20728;-57
2020/12/19 03:39:08;;;;;;;2.10;1.90;;;21.30;32.10;;;;;;4993426;28;20878;-69
2020/12/19 03:41:34;;;;;;;2.20;2.00;;;21.30;32.20;;;;;;4992213;28;20810;-56
2020/12/19 03:43:59;;;;;;;2.10;1.90;;;21.30;32.10;;;;;;4993094;28;20409;-64
2020/12/19 03:46:25;;;;;;;2.10;1.90;;;21.30;32.10;;;;;;4992904;28;20382;-57
2020/12/19 03:48:50;;;;;;;2.10;1.90;;;21.30;32.10;;;;;;4993037;28;20486;-58
2020/12/19 03:51:16;;;;;;;1.90;1.80;;;21.30;32.10;;;;;;4993106;28;20844;-57
2020/12/19 03:53:42;;;;;;;2.13;1.93;;;21.30;32.10;;;;;;4992445;28;20390;-57
2020/12/19 03:56:08;;;;;;;2.20;2.00;;;21.30;32.10;;;;;;4992135;28;20393;-57
2020/12/19 03:58:33;;;;;;;1.98;1.80;;;21.30;32.20;;;;;;4992820;28;20881;-57
2020/12/19 04:00:59;;;;;;;2.07;1.87;;;21.20;32.20;;;;;;4992826;28;20390;-57
2020/12/19 04:03:25;;;;;;;2.10;1.90;;;21.20;32.20;;;;;;4992343;28;20434;-57
2020/12/19 04:05:50;;;;;;;2.20;2.00;;;21.20;32.30;;;;;;4975042;28;20916;-58
2020/12/19 04:08:16;;;;;;;2.17;1.80;;;21.20;32.30;;;;;;4992702;28;20445;-57
2020/12/19 04:10:41;;;;;;;2.00;1.80;;;21.20;32.30;;;;;;4992419;28;20394;-57
2020/12/19 04:13:07;;;;;;;1.63;1.50;;;21.20;32.30;;;;;;4992424;28;20752;-57
2020/12/19 04:15:33;;;;;;;2.10;1.90;;;21.20;32.30;;;;;;4992325;28;20394;-57
2020/12/19 04:17:58;;;;;;;2.00;1.80;;;21.20;32.20;;;;;;4992285;28;20755;-56
2020/12/19 04:20:24;;;;;;;2.57;1.90;;;21.20;32.20;;;;;;4992574;28;20397;-57
2020/12/19 04:22:49;;;;;;;2.20;1.73;;;21.20;32.20;;;;;;4992214;28;20425;-57
2020/12/19 04:25:15;;;;;;;2.23;1.70;;;21.20;32.20;;;;;;4975032;28;20482;-57
2020/12/19 04:27:41;;;;;;;2.20;2.00;;;21.20;32.20;;;;;;4991868;28;20763;-57
2020/12/19 04:30:09;;;;;;;3.13;1.80;;;21.10;32.20;;;;;;4992351;28;20735;-57
2020/12/19 04:32:35;;;;;;;2.20;1.80;;;21.10;32.20;;;;;;4992274;28;20791;-57
2020/12/19 04:35:01;;;;;;;2.57;1.90;;;21.10;32.20;;;;;;4992282;28;20898;-56
2020/12/19 04:37:26;;;;;;;1.90;1.80;;;21.10;32.20;;;;;;4992370;28;20399;-56
2020/12/19 04:39:53;;;;;;;2.10;1.90;;;21.10;32.20;;;;;;4991992;28;20389;-57
2020/12/19 04:42:20;;;;;;;1.95;1.75;;;21.10;32.20;;;;;;4992181;28;20457;-57
2020/12/19 04:44:46;;;;;;;2.43;1.80;;;21.10;32.20;;;;;;4992069;28;20382;-57
2020/12/19 04:47:13;;;;;;;1.90;1.70;;;21.10;32.20;;;;;;4992165;28;20409;-57
2020/12/19 04:49:41;;;;;;;2.10;1.90;;;21.10;32.20;;;;;;4991552;28;20759;-57
2020/12/19 04:52:08;;;;;;;1.90;1.75;;;21.10;32.20;;;;;;4992079;28;20445;-57
2020/12/19 04:54:33;;;;;;;2.17;1.85;;;21.10;32.20;;;;;;4992061;28;20933;-57
2020/12/19 04:56:59;;;;;;;2.00;1.80;;;21.10;32.20;;;;;;4991680;28;20395;-56
2020/12/19 04:59:25;;;;;;;2.15;1.60;;;21.10;32.10;;;;;;4991934;28;20894;-56
2020/12/19 05:01:51;;;;;;;1.97;1.73;;;21.10;32.10;;;;;;4991257;28;20442;-57
2020/12/19 05:04:16;;;;;;;1.95;1.85;;;21.10;32.10;;;;;;4992020;28;20894;-61
2020/12/19 05:06:42;;;;;;;2.67;1.80;;;21.10;32.10;;;;;;4991911;28;20746;-57
2020/12/19 05:09:09;;;;;;;2.30;1.80;;;21.10;32.10;;;;;;4991782;28;20402;-57
2020/12/19 05:11:36;;;;;;;2.10;1.80;;;21.10;32.10;;;;;;4991662;28;20481;-57
2020/12/19 05:14:05;;;;;;;1.98;1.80;;;21.10;32.10;;;;;;4991691;28;20398;-56
2020/12/19 05:16:32;;;;;;;1.98;1.77;;;21.10;32.10;;;;;;4991859;28;20403;-57
2020/12/19 05:18:57;;;;;;;2.00;1.80;;;21.10;32.10;;;;;;4991861;28;20478;-57
2020/12/19 05:21:25;;;;;;;1.70;1.60;;;21.10;32.10;;;;;;4991747;28;20485;-57
2020/12/19 05:23:51;;;;;;;1.98;1.77;;;21.10;32.10;;;;;;4973834;28;20414;-57
2020/12/19 05:26:17;;;;;;;2.30;1.80;;;21.00;32.10;;;;;;4991778;28;20402;-57
2020/12/19 05:28:44;;;;;;;2.00;1.80;;;21.00;32.10;;;;;;4973958;28;20403;-57
2020/12/19 05:31:11;;;;;;;2.17;1.75;;;21.00;32.10;;;;;;4991822;28;20404;-56
2020/12/19 05:33:39;;;;;;;1.88;1.70;;;21.00;32.20;;;;;;4974006;28;20418;-57
2020/12/19 05:36:06;;;;;;;1.52;1.40;;;21.00;32.10;;;;;;4991771;28;20748;-57
2020/12/19 05:38:38;;;;;;;1.98;1.77;;;21.00;32.10;;;;;;4991581;28;20401;-57
2020/12/19 05:41:03;;;;;;;1.83;1.70;;;21.00;32.10;;;;;;4991699;28;20379;-57
2020/12/19 05:43:29;;;;;;;2.20;1.70;;;21.00;32.10;;;;;;4991306;28;20483;-57
2020/12/19 05:45:55;;;;;;;2.00;1.80;;;21.00;32.10;;;;;;4991407;28;20402;-57
2020/12/19 05:48:21;;;;;;;1.90;1.60;;;21.00;32.10;;;;;;4991659;28;20894;-57
2020/12/19 05:50:47;;;;;;;2.15;1.80;;;21.00;32.10;;;;;;4991643;28;20385;-56
2020/12/19 05:53:14;;;;;;;1.70;1.60;;;21.00;32.10;;;;;;4991669;28;20390;-57
2020/12/19 05:55:40;;;;;;;1.70;1.60;;;21.00;32.10;;;;;;4991526;28;20430;-56
2020/12/19 05:58:06;;;;;;;1.92;1.73;;;21.00;32.20;;;;;;4991532;28;20383;-57
2020/12/19 06:00:33;;;;;;;1.70;1.60;;;21.00;32.10;;;;;;4991485;28;20410;-57
2020/12/19 06:03:05;;;;;;;1.70;1.60;;;21.00;32.10;;;;;;4991245;28;20512;-57
2020/12/19 06:05:32;;;;;;;1.90;1.70;;;21.00;32.10;;;;;;4991299;28;20401;-57
2020/12/19 06:07:59;;;;;;;1.90;1.70;;;21.00;32.10;;;;;;4991196;28;20407;-57
2020/12/19 06:10:25;;;;;;;2.03;1.83;;;20.90;32.10;;;;;;4993268;28;20397;-57
2020/12/19 06:13:02;;;;;;;1.90;1.60;;;20.90;32.10;;;;;;4994764;28;20461;-58
2020/12/19 06:15:41;;;;;;;2.03;1.83;;;20.90;32.10;;;;;;4994815;28;20379;-57
2020/12/19 06:18:22;;;;;;;1.60;1.50;;;20.90;32.10;;;;;;4995037;28;20390;-57
2020/12/19 06:20:47;;;;;;;1.70;1.60;;;20.90;32.70;;;;;;4994729;28;20412;-57
2020/12/19 06:23:15;;;;;;;1.80;1.60;;;20.90;32.00;;;;;;4994612;28;20433;-57
2020/12/19 06:25:43;;;;;;;1.67;1.58;;;20.90;32.10;;;;;;4994363;28;20378;-57
2020/12/19 06:28:10;;;;;;;1.70;1.60;;;20.90;32.00;;;;;;4994642;28;20390;-56
2020/12/19 06:30:36;;;;;;;1.80;1.70;;;20.90;32.00;;;;;;4994349;28;20882;-57
2020/12/19 06:33:14;;;;;;;1.77;1.67;;;20.90;32.10;;;;;;4994515;28;20398;-57
2020/12/19 06:35:51;;;;;;;1.95;1.75;;;20.90;32.70;;;;;;4994128;28;20379;-57
2020/12/19 06:38:39;;;;;;;1.70;1.60;;;20.90;32.00;;;;;;4994289;28;20751;-57
2020/12/19 06:41:04;;;;;;;1.65;1.55;;;20.90;32.10;;;;;;4994576;28;20733;-57
2020/12/19 06:43:30;;;;;;;1.70;1.60;;;20.90;32.00;;;;;;4994200;28;20948;-57
2020/12/19 06:45:56;;;;;;;1.70;1.50;;;20.90;32.10;;;;;;4993805;28;20398;-57
2020/12/19 06:48:41;;;;;;;1.70;1.60;;;20.90;32.10;;;;;;4994205;28;20452;-57
2020/12/19 06:51:07;;;;;;;1.60;1.50;;;20.80;32.00;;;;;;4994087;28;20484;-57
2020/12/19 06:53:33;;;;;;;1.80;1.55;;;20.90;32.10;;;;;;4993934;28;20914;-57
2020/12/19 06:55:59;;;;;;;2.00;1.80;;;20.90;32.10;;;;;;4993824;28;20414;-57
2020/12/19 06:58:33;;;;;;;1.63;1.50;;;20.90;32.10;;;;;;4994279;28;20390;-57
2020/12/19 07:00:59;;;;;;;1.67;1.50;;;20.80;32.00;;;;;;4993812;28;20540;-57
2020/12/19 07:03:41;;;;;;;2.27;1.60;;;20.80;32.30;;;;;;4993681;28;20507;-57
2020/12/19 07:06:11;;;;;;;1.80;1.70;;;20.90;32.60;;;;;;4993862;28;20467;-57
2020/12/19 07:08:37;;;;;;;1.77;1.67;;;20.90;32.50;;;;;;4993854;28;20918;-57
2020/12/19 07:11:03;;;;;;;1.70;1.60;;;20.90;33.30;;;;;;4993991;28;20423;-57
2020/12/19 07:13:51;;;;;;;1.90;1.70;;;20.90;33.10;;;;;;4993822;28;20898;-57
2020/12/19 07:16:42;;;;;;;2.00;1.80;;;20.90;32.70;;;;;;4993721;28;20390;-56
2020/12/19 07:19:20;;;;;;;2.28;1.70;;;20.90;32.90;;;;;;4993693;28;20390;-56
2020/12/19 07:21:46;;;;;;;3.00;2.25;;;20.80;32.50;;;;;;4992529;28;20410;-56
2020/12/19 07:24:12;;;;;;;4.03;2.40;;;20.80;32.90;;;;;;4993628;28;20425;-56
2020/12/19 07:26:38;;;;;;;4.07;2.40;;;20.70;33.10;;;;;;4993375;28;20942;-56
2020/12/19 07:29:18;;;;;;;5.35;2.83;;;20.80;32.90;;;;;;4976089;28;20399;-56
2020/12/19 07:31:46;;;;;;;3.25;2.40;;;20.70;33.10;;;;;;4992857;28;20386;-56
2020/12/19 07:34:12;;;;;;;5.63;2.50;;;20.70;33.40;;;;;;4993290;28;20468;-55
2020/12/19 07:36:40;;;;;;;3.90;2.00;;;20.70;33.70;;;;;;4993267;28;20870;-56
2020/12/19 07:39:07;;;;;;;2.65;2.30;;;20.70;34.20;;;;;;4993385;28;20444;-56
2020/12/19 07:41:34;;;;;;;3.15;2.83;;;20.70;34.00;;;;;;4993357;28;20391;-56
2020/12/19 07:44:14;;;;;;;4.15;3.08;;;20.70;33.70;;;;;;4992740;28;20425;-56
2020/12/19 07:47:02;;;;;;;4.78;4.18;;;20.70;34.10;;;;;;4975554;28;20394;-56
2020/12/19 07:49:37;;;;;;;7.00;3.90;;;20.70;34.60;;;;;;4993122;28;20402;-56
2020/12/19 07:52:21;;;;;;;4.63;3.20;;;20.70;34.60;;;;;;4992882;28;20382;-56
2020/12/19 07:54:54;;;;;;;5.45;2.92;;;20.70;34.00;;;;;;4975514;28;20395;-56
2020/12/19 07:57:20;;;;;;;6.13;3.20;;;20.70;35.10;;;;;;4992846;28;20933;-56
2020/12/19 07:59:47;;;;;;;10.82;4.70;;;20.70;35.70;;;;;;4992576;28;20399;-56
2020/12/19 08:02:15;;;;;;;10.55;4.90;;;20.70;36.20;;;;;;4992552;28;20481;-56
2020/12/19 08:04:50;;;;;;;6.68;3.95;;;20.70;36.60;;;;;;4992765;28;20429;-56
2020/12/19 08:07:21;;;;;;;8.95;3.85;;;20.80;36.60;;;;;;4992793;28;20866;-56
2020/12/19 08:09:47;;;;;;;7.55;3.55;;;20.80;36.20;;;;;;4992302;28;20389;-56
2020/12/19 08:12:13;;;;;;;5.82;3.45;;;20.80;36.60;;;;;;4992686;28;20378;-56
2020/12/19 08:14:40;;;;;;;5.38;3.50;;;20.80;36.20;;;;;;4992423;28;20409;-56
2020/12/19 08:17:14;;;;;;;6.05;3.60;;;20.80;36.20;;;;;;4992415;28;20859;-56
2020/12/19 08:19:49;;;;;;;5.70;3.30;;;20.90;36.00;;;;;;4992144;28;20439;-56
2020/12/19 08:22:15;;;;;;;4.90;3.28;;;20.90;35.90;;;;;;4992347;28;20415;-56
2020/12/19 08:24:49;;;;;;;4.35;2.80;;;20.90;36.10;;;;;;4992229;28;20415;-57
2020/12/19 08:27:35;;;;;;;6.50;2.90;;;20.90;34.80;;;;;;4992431;28;20466;-56
2020/12/19 08:30:11;;;;;;;4.07;2.75;;;20.80;34.60;;;;;;4991887;28;20398;-57
2020/12/19 08:32:49;;;;;;;8.15;3.03;;;20.80;34.60;;;;;;4991613;28;20391;-57
2020/12/19 08:35:21;;;;;;;4.53;2.70;;;20.80;34.60;;;;;;4992243;28;20894;-57
2020/12/19 08:37:47;;;;;;;3.95;2.30;;;20.80;34.40;;;;;;4991881;28;20398;-57
2020/12/19 08:40:16;;;;;;;4.57;2.33;;;20.80;34.30;;;;;;4991643;28;20391;-57
2020/12/19 08:42:42;;;;;;;4.00;2.10;;;20.80;33.90;;;;;;4992105;28;20508;-57
2020/12/19 08:45:16;;;;;;;3.63;2.17;;;20.90;33.70;;;;;;4992075;28;20848;-57
2020/12/19 08:47:43;;;;;;;3.10;2.05;;;20.90;33.70;;;;;;4991854;28;21187;-57
2020/12/19 08:50:09;;;;;;;4.50;2.05;;;20.90;33.50;;;;;;4991802;28;20391;-57
2020/12/19 08:52:38;;;;;;;2.97;2.13;;;20.80;33.40;;;;;;4992017;28;20494;-57
2020/12/19 08:55:04;;;;;;;4.82;2.00;;;20.90;33.20;;;;;;4992008;28;20386;-57
2020/12/19 08:57:33;;;;;;;4.45;2.08;;;20.90;33.20;;;;;;4991840;28;20409;-56
2020/12/19 09:00:15;;;;;;;3.60;2.05;;;20.90;33.00;;;;;;4991351;28;20387;-56
2020/12/19 09:02:42;;;;;;;4.90;1.90;;;20.80;33.10;;;;;;4974263;28;20430;-56
2020/12/19 09:05:09;;;;;;;6.82;2.30;;;20.70;33.40;;;;;;4992965;28;20409;-56
2020/12/19 09:07:35;;;;;;;4.03;1.88;;;20.70;33.50;;;;;;4995253;28;20482;-57
2020/12/19 09:10:27;;;;;;;5.68;2.05;;;20.70;33.40;;;;;;4995094;28;20440;-56
2020/12/19 09:13:09;;;;;;;5.20;2.00;;;20.80;33.30;;;;;;5011384;28;20869;-56
2020/12/19 09:15:35;;;;;;;2.85;1.80;;;20.80;33.20;;;;;;5011346;28;20393;-57
2020/12/19 09:18:15;;;;;;;2.73;1.90;;;20.80;33.10;;;;;;5010922;28;20524;-56
2020/12/19 09:20:42;;;;;;;3.23;1.90;;;20.90;33.10;;;;;;4993797;28;20473;-56
2020/12/19 09:23:08;;;;;;;2.67;1.90;;;20.90;33.10;;;;;;5000011;28;20419;-57
2020/12/19 09:25:33;;;;;;;3.00;1.98;;;20.90;33.00;;;;;;4991682;28;20871;-57
2020/12/19 09:27:59;;;;;;;2.40;1.90;;;20.90;33.60;;;;;;4991239;28;20449;-57
2020/12/19 09:30:25;;;;;;;4.32;1.95;;;20.90;33.00;;;;;;4991762;28;20387;-56
2020/12/19 09:32:51;;;;;;;2.42;1.80;;;20.90;33.00;;;;;;4991753;28;20910;-56
2020/12/19 09:35:16;;;;;;;2.70;1.77;;;20.90;32.90;;;;;;4991926;28;20382;-56
2020/12/19 09:37:42;;;;;;;2.55;1.70;;;20.80;32.80;;;;;;4991435;28;20398;-56
2020/12/19 09:40:08;;;;;;;2.20;1.47;;;20.80;32.90;;;;;;4991398;28;20398;-56
2020/12/19 09:42:33;;;;;;;2.90;1.80;;;20.80;32.90;;;;;;4991480;28;20433;-57
2020/12/19 09:44:59;;;;;;;2.85;1.83;;;20.80;32.80;;;;;;4994455;28;20437;-56
2020/12/19 09:47:25;;;;;;;1.95;1.75;;;20.90;32.90;;;;;;4995361;28;20391;-56
2020/12/19 09:49:50;;;;;;;2.30;1.80;;;20.90;32.80;;;;;;4994805;28;20394;-56
2020/12/19 09:52:16;;;;;;;2.43;1.83;;;20.90;32.80;;;;;;4994959;28;20393;-56
2020/12/19 09:54:42;;;;;;;2.60;1.80;;;20.90;32.80;;;;;;4995144;28;20811;-57
2020/12/19 09:57:07;;;;;;;2.07;1.83;;;20.80;32.80;;;;;;4995230;28;20386;-56
2020/12/19 09:59:33;;;;;;;2.20;2.00;;;20.80;32.80;;;;;;5005339;28;20393;-57
2020/12/19 10:01:58;;;;;;;1.93;1.73;;;20.80;32.80;;;;;;5013968;28;21067;-57
2020/12/19 10:04:24;;;;;;;2.13;1.93;;;20.90;32.80;;;;;;5014652;28;20486;-57
2020/12/19 10:06:50;;;;;;;2.60;1.80;;;20.80;32.80;;;;;;5014469;28;20758;-56
2020/12/19 10:09:16;;;;;;;2.20;2.00;;;20.80;32.70;;;;;;5014333;28;20504;-56
2020/12/19 10:11:42;;;;;;;2.80;1.88;;;20.80;32.70;;;;;;4996750;28;20405;-57
2020/12/19 10:14:07;;;;;;;2.50;1.80;;;20.80;32.70;;;;;;5013950;28;20877;-56
2020/12/19 10:16:33;;;;;;;2.20;2.00;;;20.80;32.80;;;;;;5014387;28;20392;-56
2020/12/19 10:18:59;;;;;;;2.37;2.00;;;20.80;32.70;;;;;;5014313;28;20395;-57
2020/12/19 10:21:24;;;;;;;2.30;2.10;;;20.80;32.80;;;;;;5014260;28;20396;-56
2020/12/19 10:23:50;;;;;;;2.47;2.10;;;20.80;32.80;;;;;;5013984;28;20393;-56
2020/12/19 10:26:15;;;;;;;2.42;1.92;;;20.80;32.80;;;;;;4996509;28;20409;-56
2020/12/19 10:28:41;;;;;;;2.33;2.13;;;20.80;32.80;;;;;;5014194;28;20392;-56
2020/12/19 10:31:07;;;;;;;2.40;2.20;;;20.80;32.70;;;;;;5013645;28;20876;-56
2020/12/19 10:33:32;;;;;;;2.60;2.03;;;20.80;32.80;;;;;;5014021;28;20480;-57
2020/12/19 10:35:58;;;;;;;2.30;2.05;;;20.70;32.70;;;;;;5013864;28;20782;-56
2020/12/19 10:38:24;;;;;;;2.33;2.13;;;20.80;32.70;;;;;;5013930;28;20796;-56
2020/12/19 10:40:49;;;;;;;2.30;2.10;;;20.70;32.70;;;;;;5013873;28;20789;-56
2020/12/19 10:43:15;;;;;;;2.15;1.90;;;20.70;32.70;;;;;;5013911;28;20424;-56
2020/12/19 10:45:40;;;;;;;2.33;2.10;;;20.70;32.70;;;;;;5013787;28;20389;-56
2020/12/19 10:48:06;;;;;;;2.37;2.17;;;20.70;32.70;;;;;;5013435;28;20401;-56
2020/12/19 10:50:32;;;;;;;2.33;2.13;;;20.70;32.80;;;;;;5013595;28;20388;-57
2020/12/19 10:52:57;;;;;;;3.13;2.25;;;20.70;32.80;;;;;;5013481;28;20908;-57
2020/12/19 10:55:23;;;;;;;2.50;2.20;;;20.70;32.70;;;;;;5012959;28;20471;-57
2020/12/19 10:57:49;;;;;;;2.35;2.15;;;20.70;32.80;;;;;;5013534;28;20797;-57
2020/12/19 11:00:14;;;;;;;2.33;2.13;;;20.70;32.80;;;;;;4997414;28;20794;-57
2020/12/19 11:02:40;;;;;;;2.55;2.15;;;20.70;32.80;;;;;;4993679;28;20898;-56
2020/12/19 11:05:05;;;;;;;2.23;2.03;;;20.70;32.80;;;;;;4976634;28;20421;-57
2020/12/19 11:07:31;;;;;;;2.30;2.10;;;20.70;32.80;;;;;;4993852;28;20403;-57
2020/12/19 11:09:57;;;;;;;2.50;2.30;;;20.70;32.70;;;;;;4993769;28;20412;-57
2020/12/19 11:12:22;;;;;;;2.40;2.20;;;20.70;32.80;;;;;;4993877;28;20406;-57
2020/12/19 11:14:48;;;;;;;2.27;2.07;;;20.70;32.80;;;;;;4993696;28;20899;-58
2020/12/19 11:17:14;;;;;;;4.20;2.30;;;20.70;32.80;;;;;;4993723;28;20387;-57
2020/12/19 11:19:39;;;;;;;4.10;2.30;;;20.60;32.80;;;;;;4993533;28;20798;-57
2020/12/19 11:22:05;;;;;;;3.60;2.53;;;20.60;32.90;;;;;;4993016;28;20750;-57
2020/12/19 11:24:31;;;;;;;3.50;2.30;;;20.60;32.80;;;;;;4993448;28;20437;-58
2020/12/19 11:26:57;;;;;;;3.60;2.40;;;20.70;33.00;;;;;;4993626;28;20390;-57
2020/12/19 11:29:22;;;;;;;4.13;2.65;;;20.70;33.00;;;;;;4976068;28;20449;-57
2020/12/19 11:31:48;;;;;;;8.03;2.87;;;20.70;33.00;;;;;;4993358;28;20399;-57
2020/12/19 11:34:14;;;;;;;9.98;2.83;;;20.70;33.20;;;;;;4993116;28;20395;-59
2020/12/19 11:36:40;;;;;;;9.18;3.15;;;20.70;33.40;;;;;;4993326;28;20941;-57
2020/12/19 11:39:11;;;;;;;10.55;3.50;;;20.60;33.50;;;;;;4993002;28;20418;-56
2020/12/19 11:41:41;;;;;;;11.50;3.00;;;20.60;33.60;;;;;;4992935;28;20417;-61
2020/12/19 11:44:08;;;;;;;9.20;3.00;;;20.60;33.60;;;;;;4992786;28;20398;-56
2020/12/19 11:46:34;;;;;;;9.48;2.92;;;20.60;33.60;;;;;;4992999;28;20945;-57
2020/12/19 11:49:00;;;;;;;6.83;3.33;;;20.60;33.70;;;;;;4993095;28;20424;-57
2020/12/19 11:51:30;;;;;;;10.38;3.13;;;20.60;35.70;;;;;;4992808;28;20387;-56
2020/12/19 11:54:01;;;;;;;8.07;3.00;;;20.60;37.90;;;;;;4992818;28;20537;-56
2020/12/19 11:56:28;;;;;;;7.70;2.80;;;20.60;38.50;;;;;;4993158;28;20397;-56
2020/12/19 11:58:54;;;;;;;7.83;3.10;;;20.70;39.40;;;;;;4998041;28;20444;-57
2020/12/19 12:01:25;;;;;;;9.85;3.35;;;20.70;38.90;;;;;;5012392;28;20412;-56
2020/12/19 12:03:50;;;;;;;6.53;3.15;;;20.80;39.80;;;;;;5012022;28;20435;-56
2020/12/19 12:06:16;;;;;;;4.70;3.00;;;20.80;41.50;;;;;;5012031;28;20451;-57
2020/12/19 12:08:42;;;;;;;8.07;3.00;;;20.80;39.90;;;;;;5012172;28;20435;-56
2020/12/19 12:11:08;;;;;;;8.50;3.13;;;20.80;39.20;;;;;;5011981;28;20424;-57
2020/12/19 12:13:33;;;;;;;9.80;3.08;;;20.80;37.60;;;;;;4994478;28;20475;-58
2020/12/19 12:15:59;;;;;;;9.90;3.17;;;20.80;38.20;;;;;;5011599;28;20941;-56
2020/12/19 12:18:24;;;;;;;10.73;3.92;;;20.90;38.00;;;;;;5011958;28;20450;-57
2020/12/19 12:20:52;;;;;;;8.03;3.90;;;21.10;38.20;;;;;;5012059;28;20392;-57
2020/12/19 12:23:17;;;;;;;8.80;3.80;;;21.30;38.30;;;;;;5011086;28;20503;-56
2020/12/19 12:25:43;;;;;;;11.73;3.90;;;21.40;38.00;;;;;;5011668;28;20850;-57
2020/12/19 12:28:09;;;;;;;13.07;3.70;;;21.40;38.80;;;;;;5010955;28;20397;-57
2020/12/19 12:30:34;;;;;;;9.55;3.75;;;21.50;38.80;;;;;;5011836;28;20471;-56
2020/12/19 12:33:00;;;;;;;9.18;3.92;;;21.50;38.60;;;;;;5011558;28;20385;-57
2020/12/19 12:35:26;;;;;;;11.43;3.80;;;21.50;39.20;;;;;;5011797;28;20924;-58
2020/12/19 12:37:51;;;;;;;12.20;4.38;;;21.50;39.20;;;;;;5011012;28;20404;-57
2020/12/19 12:40:17;;;;;;;8.00;3.43;;;21.50;39.30;;;;;;5010813;28;20389;-57
2020/12/19 12:42:43;;;;;;;12.02;3.80;;;21.50;39.30;;;;;;5010991;28;20413;-56
2020/12/19 12:45:08;;;;;;;10.73;3.90;;;21.50;39.40;;;;;;5011620;28;20389;-57
2020/12/19 12:47:34;;;;;;;10.70;3.65;;;21.50;38.90;;;;;;5011455;28;20880;-56